createdAt,value
2018-11-05T00:00:48.395Z,13.87
2018-11-05T00:03:25.435Z,15.43
2018-11-05T00:05:57.919Z,13.60
2018-11-05T00:08:27.109Z,13.90
2018-11-05T00:10:56.516Z,14.17
2018-11-05T00:13:25.226Z,14.43
2018-11-05T00:15:56.277Z,15.97
2018-11-05T00:18:24.869Z,14.07
2018-11-05T00:20:54.473Z,16.60
2018-11-05T00:23:23.804Z,14.50
2018-11-05T00:25:53.049Z,14.70
2018-11-05T00:28:22.016Z,15.53
2018-11-05T00:30:51.429Z,15.47
2018-11-05T00:33:20.204Z,18.40
2018-11-05T00:35:50.269Z,13.43
2018-11-05T00:38:20.001Z,14.63
2018-11-05T00:40:49.064Z,16.40
2018-11-05T00:43:18.876Z,17.10
2018-11-05T00:45:47.568Z,16.20
2018-11-05T00:48:16.960Z,13.63
2018-11-05T00:50:46.549Z,16.57
2018-11-05T00:53:15.486Z,17.53
2018-11-05T00:55:45.571Z,17.90
2018-11-05T00:58:14.512Z,16.20
2018-11-05T01:00:43.885Z,15.50
2018-11-05T01:03:12.996Z,14.57
2018-11-05T01:05:41.843Z,17.00
2018-11-05T01:08:10.733Z,14.97
2018-11-05T01:10:40.037Z,15.17
2018-11-05T01:13:09.235Z,16.90
2018-11-05T01:15:38.437Z,16.37
2018-11-05T01:18:07.897Z,14.73
2018-11-05T01:20:36.764Z,15.57
2018-11-05T01:23:07.384Z,17.07
2018-11-05T01:25:37.692Z,14.57
2018-11-05T01:28:07.279Z,16.07
2018-11-05T01:30:37.079Z,16.17
2018-11-05T01:33:06.501Z,15.70
2018-11-05T01:35:35.762Z,16.30
2018-11-05T01:38:04.683Z,17.53
2018-11-05T01:40:33.680Z,15.13
2018-11-05T01:43:02.288Z,16.13
2018-11-05T01:45:31.664Z,15.17
2018-11-05T01:48:01.270Z,16.97
2018-11-05T01:50:30.449Z,17.33
2018-11-05T01:52:59.599Z,16.50
2018-11-05T01:55:28.513Z,16.90
2018-11-05T01:57:58.090Z,16.63
2018-11-05T02:00:27.704Z,16.97
2018-11-05T02:02:57.411Z,17.47
2018-11-05T02:05:25.987Z,15.67
2018-11-05T02:07:56.800Z,16.67
2018-11-05T02:10:26.810Z,17.27
2018-11-05T02:12:55.993Z,19.33
2018-11-05T02:15:25.936Z,18.57
2018-11-05T02:17:54.913Z,16.73
2018-11-05T02:20:23.817Z,17.70
2018-11-05T02:22:52.653Z,16.97
2018-11-05T02:25:22.050Z,18.63
2018-11-05T02:27:51.291Z,17.13
2018-11-05T02:30:20.588Z,16.27
2018-11-05T02:32:50.082Z,15.93
2018-11-05T02:35:19.787Z,18.07
2018-11-05T02:37:48.991Z,15.67
2018-11-05T02:40:20.580Z,17.43
2018-11-05T02:42:49.908Z,15.57
2018-11-05T02:45:20.616Z,16.60
2018-11-05T02:47:50.191Z,14.93
2018-11-05T02:50:19.086Z,19.37
2018-11-05T02:52:48.443Z,15.10
2018-11-05T02:55:17.437Z,15.10
2018-11-05T02:57:47.358Z,16.67
2018-11-05T03:00:18.825Z,16.73
2018-11-05T03:02:48.031Z,19.37
2018-11-05T03:05:18.740Z,18.73
2018-11-05T03:07:48.220Z,17.83
2018-11-05T03:10:18.008Z,18.87
2018-11-05T03:12:47.752Z,18.20
2018-11-05T03:15:17.945Z,21.80
2018-11-05T03:17:47.638Z,24.10
2018-11-05T03:20:17.167Z,21.83
2018-11-05T03:22:46.560Z,22.30
2018-11-05T03:25:15.754Z,22.30
2018-11-05T03:27:45.355Z,23.17
2018-11-05T03:30:16.784Z,24.43
2018-11-05T03:32:45.423Z,21.47
2018-11-05T03:35:15.142Z,24.77
2018-11-05T03:37:45.118Z,24.23
2018-11-05T03:40:14.548Z,20.37
2018-11-05T03:42:43.586Z,20.87
2018-11-05T03:45:13.660Z,21.50
2018-11-05T03:47:42.588Z,24.00
2018-11-05T03:50:15.928Z,22.37
2018-11-05T03:52:46.137Z,24.93
2018-11-05T03:55:15.642Z,23.07
2018-11-05T03:57:45.785Z,23.80
2018-11-05T04:00:16.269Z,22.20
2018-11-05T04:02:45.203Z,21.90
2018-11-05T04:05:14.464Z,22.33
2018-11-05T04:07:44.096Z,20.73
2018-11-05T04:10:13.691Z,22.47
2018-11-05T04:12:44.030Z,21.47
2018-11-05T04:15:13.114Z,20.73
2018-11-05T04:17:41.958Z,19.70
2018-11-05T04:20:12.855Z,19.77
2018-11-05T04:22:42.195Z,19.33
2018-11-05T04:25:10.863Z,19.87
2018-11-05T04:27:39.771Z,19.47
2018-11-05T04:30:11.878Z,19.57
2018-11-05T04:32:41.013Z,18.57
2018-11-05T04:35:10.604Z,19.67
2018-11-05T04:37:40.163Z,19.10
2018-11-05T04:40:10.632Z,18.43
2018-11-05T04:42:39.589Z,19.27
2018-11-05T04:45:10.042Z,20.27
2018-11-05T04:47:39.312Z,20.53
2018-11-05T04:50:09.615Z,20.73
2018-11-05T04:52:39.175Z,18.47
2018-11-05T04:55:09.109Z,18.43
2018-11-05T04:57:38.694Z,19.00
2018-11-05T05:00:10.929Z,17.93
2018-11-05T05:02:41.083Z,18.63
2018-11-05T05:05:10.928Z,19.17
2018-11-05T05:07:42.854Z,20.17
2018-11-05T05:10:12.436Z,19.47
2018-11-05T05:12:42.389Z,18.77
2018-11-05T05:15:11.703Z,20.80
2018-11-05T05:17:41.260Z,23.57
2018-11-05T05:20:12.345Z,22.27
2018-11-05T05:22:41.398Z,19.57
2018-11-05T05:25:10.739Z,18.80
2018-11-05T05:27:40.095Z,20.70
2018-11-05T05:30:13.390Z,21.40
2018-11-05T05:32:42.193Z,21.40
2018-11-05T05:35:11.193Z,20.57
2018-11-05T05:37:40.647Z,18.50
2018-11-05T05:40:09.953Z,19.17
2018-11-05T05:42:40.034Z,22.40
2018-11-05T05:45:10.255Z,18.70
2018-11-05T05:47:39.640Z,20.07
2018-11-05T05:50:11.994Z,19.97
2018-11-05T05:52:41.967Z,22.10
2018-11-05T05:55:11.032Z,21.63
2018-11-05T05:57:39.992Z,19.40
2018-11-05T06:00:10.508Z,19.70
2018-11-05T06:02:39.859Z,20.73
2018-11-05T06:05:10.068Z,21.00
2018-11-05T06:07:40.281Z,22.17
2018-11-05T06:10:09.909Z,20.60
2018-11-05T06:12:38.992Z,22.07
2018-11-05T06:15:10.728Z,17.07
2018-11-05T06:17:39.671Z,18.50
2018-11-05T06:20:12.039Z,26.67
2018-11-05T06:22:41.235Z,50.40
2018-11-05T06:25:10.543Z,33.43
2018-11-05T06:27:39.817Z,26.10
2018-11-05T06:30:11.531Z,19.10
2018-11-05T06:32:41.483Z,22.80
2018-11-05T06:35:12.041Z,31.73
2018-11-05T06:37:41.624Z,30.57
2018-11-05T06:40:12.697Z,29.07
2018-11-05T06:42:42.465Z,29.50
2018-11-05T06:45:13.432Z,26.90
2018-11-05T06:47:43.826Z,27.20
2018-11-05T06:50:14.883Z,116.47
2018-11-05T06:52:45.220Z,116.50
2018-11-05T06:55:14.790Z,41.47
2018-11-05T06:57:43.579Z,26.47
2018-11-05T07:00:14.813Z,31.23
2018-11-05T07:02:46.958Z,32.50
2018-11-05T07:05:29.020Z,36.90
2018-11-05T07:07:58.953Z,33.00
2018-11-05T07:10:30.962Z,29.10
2018-11-05T07:13:01.742Z,24.10
2018-11-05T07:15:33.608Z,26.37
2018-11-05T07:18:05.684Z,22.23
2018-11-05T07:20:47.586Z,24.33
2018-11-05T07:23:25.853Z,22.10
2018-11-05T07:25:59.054Z,24.47
2018-11-05T07:28:32.063Z,28.27
2018-11-05T07:31:04.094Z,26.00
2018-11-05T07:33:38.420Z,23.57
2018-11-05T07:36:07.981Z,21.57
2018-11-05T07:38:37.178Z,22.27
2018-11-05T07:41:08.249Z,21.17
2018-11-05T07:43:46.945Z,23.80
2018-11-05T07:46:28.586Z,22.90
2018-11-05T07:49:02.211Z,23.80
2018-11-05T07:51:34.264Z,22.17
2018-11-05T07:54:06.363Z,22.60
2018-11-05T07:56:48.094Z,23.70
2018-11-05T07:59:21.130Z,22.80
2018-11-05T08:02:00.430Z,22.73
2018-11-05T08:04:38.787Z,20.83
2018-11-05T08:07:13.589Z,20.73
2018-11-05T08:09:52.366Z,21.77
2018-11-05T08:12:36.026Z,22.30
2018-11-05T08:15:09.997Z,21.03
2018-11-05T08:17:39.458Z,20.77
2018-11-05T08:20:11.463Z,24.80
2018-11-05T08:22:41.140Z,28.50
2018-11-05T08:25:10.821Z,25.30
2018-11-05T08:27:39.993Z,26.37
2018-11-05T08:30:13.306Z,22.27
2018-11-05T08:32:43.004Z,27.70
2018-11-05T08:35:13.138Z,26.83
2018-11-05T08:37:43.246Z,30.07
2018-11-05T08:40:14.391Z,28.63
2018-11-05T08:42:43.993Z,24.17
2018-11-05T08:45:16.737Z,23.77
2018-11-05T08:47:46.096Z,25.93
2018-11-05T08:50:26.826Z,27.97
2018-11-05T08:52:57.355Z,27.37
2018-11-05T08:55:27.288Z,26.30
2018-11-05T08:57:56.371Z,26.77
2018-11-05T09:00:30.259Z,25.17
2018-11-05T09:02:59.703Z,23.93
2018-11-05T09:05:29.271Z,25.67
2018-11-05T09:07:58.068Z,25.67
2018-11-05T09:10:27.462Z,27.77
2018-11-05T09:12:56.279Z,26.00
2018-11-05T09:15:25.491Z,24.80
2018-11-05T09:17:54.367Z,26.97
2018-11-05T09:20:23.880Z,24.23
2018-11-05T09:22:53.691Z,24.93
2018-11-05T09:25:22.514Z,26.60
2018-11-05T09:27:52.141Z,25.93
2018-11-05T09:30:22.576Z,29.43
2018-11-05T09:32:51.452Z,26.00
2018-11-05T09:35:20.362Z,26.40
2018-11-05T09:37:49.609Z,24.53
2018-11-05T09:40:20.885Z,28.30
2018-11-05T09:42:50.620Z,25.83
2018-11-05T09:45:22.107Z,29.30
2018-11-05T09:47:51.204Z,27.40
2018-11-05T09:50:20.291Z,24.60
2018-11-05T09:52:49.564Z,23.83
2018-11-05T09:55:18.549Z,24.73
2018-11-05T09:57:48.240Z,24.50
2018-11-05T10:00:19.060Z,22.37
2018-11-05T10:02:53.458Z,26.70
2018-11-05T10:05:22.609Z,27.27
2018-11-05T10:07:51.393Z,25.40
2018-11-05T10:10:20.434Z,25.37
2018-11-05T10:12:49.099Z,22.57
2018-11-05T10:15:19.138Z,23.00
2018-11-05T10:17:48.064Z,31.30
2018-11-05T10:20:18.370Z,22.13
2018-11-05T10:22:47.766Z,22.17
2018-11-05T10:25:17.108Z,26.23
2018-11-05T10:27:46.297Z,24.73
2018-11-05T10:30:17.322Z,24.13
2018-11-05T10:32:46.469Z,26.87
2018-11-05T10:35:16.380Z,24.20
2018-11-05T10:37:46.011Z,24.00
2018-11-05T10:40:16.785Z,23.67
2018-11-05T10:42:46.804Z,22.50
2018-11-05T10:45:17.253Z,24.80
2018-11-05T10:47:46.801Z,21.87
2018-11-05T10:50:17.287Z,24.23
2018-11-05T10:52:50.098Z,22.77
2018-11-05T10:55:19.050Z,23.53
2018-11-05T10:57:49.609Z,22.37
2018-11-05T11:00:25.401Z,21.63
2018-11-05T11:03:00.495Z,22.63
2018-11-05T11:05:31.130Z,23.53
2018-11-05T11:08:00.505Z,23.80
2018-11-05T11:10:30.076Z,21.63
2018-11-05T11:12:59.223Z,22.27
2018-11-05T11:15:28.620Z,21.07
2018-11-05T11:17:58.540Z,20.67
2018-11-05T11:20:28.077Z,21.63
2018-11-05T11:22:57.355Z,21.73
2018-11-05T11:25:27.226Z,24.90
2018-11-05T11:27:56.856Z,23.00
2018-11-05T11:30:25.669Z,20.03
2018-11-05T11:32:54.584Z,22.57
2018-11-05T11:35:23.680Z,20.77
2018-11-05T11:37:54.488Z,20.57
2018-11-05T11:40:23.963Z,23.27
2018-11-05T11:42:54.429Z,20.90
2018-11-05T11:45:24.354Z,20.77
2018-11-05T11:47:52.999Z,21.83
2018-11-05T11:50:22.048Z,20.17
2018-11-05T11:52:51.222Z,22.47
2018-11-05T11:55:21.662Z,22.17
2018-11-05T11:57:50.847Z,19.73
2018-11-05T12:00:22.048Z,22.77
2018-11-05T12:02:51.749Z,21.30
2018-11-05T12:05:21.889Z,19.80
2018-11-05T12:07:50.840Z,21.77
2018-11-05T12:10:21.540Z,21.57
2018-11-05T12:12:50.478Z,19.93
2018-11-05T12:15:20.771Z,20.87
2018-11-05T12:17:50.677Z,23.83
2018-11-05T12:20:22.390Z,21.87
2018-11-05T12:22:51.616Z,21.83
2018-11-05T12:25:21.463Z,20.37
2018-11-05T12:27:51.473Z,20.87
2018-11-05T12:30:21.809Z,20.90
2018-11-05T12:32:51.556Z,21.10
2018-11-05T12:35:21.575Z,19.33
2018-11-05T12:37:52.274Z,21.80
2018-11-05T12:40:22.202Z,19.90
2018-11-05T12:42:51.408Z,18.20
2018-11-05T12:45:20.312Z,18.17
2018-11-05T12:47:49.572Z,21.43
2018-11-05T12:50:21.399Z,19.77
2018-11-05T12:52:51.591Z,24.50
2018-11-05T12:55:20.208Z,19.57
2018-11-05T12:57:49.801Z,18.20
2018-11-05T13:00:20.487Z,19.83
2018-11-05T13:02:53.369Z,19.30
2018-11-05T13:05:22.309Z,24.33
2018-11-05T13:07:51.498Z,22.17
2018-11-05T13:10:20.146Z,20.03
2018-11-05T13:12:49.657Z,23.27
2018-11-05T13:15:19.299Z,20.87
2018-11-05T13:17:48.028Z,21.47
2018-11-05T13:20:18.342Z,19.60
2018-11-05T13:22:48.411Z,21.97
2018-11-05T13:25:17.333Z,20.93
2018-11-05T13:27:47.648Z,20.00
2018-11-05T13:30:16.889Z,21.80
2018-11-05T13:32:45.679Z,20.70
2018-11-05T13:35:15.929Z,22.30
2018-11-05T13:37:45.690Z,21.80
2018-11-05T13:40:18.361Z,21.77
2018-11-05T13:42:47.756Z,18.77
2018-11-05T13:45:17.355Z,22.17
2018-11-05T13:47:46.524Z,23.57
2018-11-05T13:50:15.871Z,20.87
2018-11-05T13:52:44.595Z,21.23
2018-11-05T13:55:14.444Z,21.17
2018-11-05T13:57:44.272Z,23.17
2018-11-05T14:00:16.201Z,22.07
2018-11-05T14:02:45.280Z,23.27
2018-11-05T14:05:14.877Z,23.93
2018-11-05T14:07:43.491Z,26.27
2018-11-05T14:10:14.590Z,32.13
2018-11-05T14:12:44.659Z,24.63
2018-11-05T14:15:13.273Z,22.60
2018-11-05T14:17:42.949Z,30.70
2018-11-05T14:20:13.336Z,24.27
2018-11-05T14:22:43.139Z,26.07
2018-11-05T14:25:14.225Z,25.50
2018-11-05T14:27:45.554Z,26.23
2018-11-05T14:30:14.741Z,24.83
2018-11-05T14:32:44.713Z,22.77
2018-11-05T14:35:13.669Z,24.93
2018-11-05T14:37:42.694Z,30.13
2018-11-05T14:40:13.348Z,40.80
2018-11-05T14:42:42.974Z,27.80
2018-11-05T14:45:14.156Z,25.50
2018-11-05T14:47:44.900Z,23.43
2018-11-05T14:50:15.177Z,24.07
2018-11-05T14:52:44.876Z,24.20
2018-11-05T14:55:15.622Z,36.10
2018-11-05T14:57:45.575Z,37.93
2018-11-05T15:00:16.276Z,32.73
2018-11-05T15:02:46.056Z,53.67
2018-11-05T15:05:15.307Z,33.30
2018-11-05T15:07:45.300Z,30.50
2018-11-05T15:10:15.866Z,24.73
2018-11-05T15:12:45.341Z,22.73
2018-11-05T15:15:14.858Z,23.20
2018-11-05T15:17:46.551Z,32.43
2018-11-05T15:20:17.039Z,24.33
2018-11-05T15:22:46.085Z,28.70
2018-11-05T15:25:15.636Z,22.83
2018-11-05T15:27:44.913Z,24.87
2018-11-05T15:30:22.493Z,25.63
2018-11-05T15:32:52.253Z,23.03
2018-11-05T15:35:21.920Z,23.23
2018-11-05T15:37:51.151Z,25.33
2018-11-05T15:40:21.371Z,22.10
2018-11-05T15:42:50.736Z,24.13
2018-11-05T15:45:21.264Z,24.83
2018-11-05T15:47:52.525Z,25.47
2018-11-05T15:50:22.312Z,25.83
2018-11-05T15:52:51.375Z,25.10
2018-11-05T15:55:19.653Z,21.90
2018-11-05T15:57:49.971Z,24.63
2018-11-05T16:00:26.293Z,22.03
2018-11-05T16:02:58.604Z,25.63
2018-11-05T16:05:28.258Z,22.87
2018-11-05T16:07:57.295Z,24.47
2018-11-05T16:10:26.554Z,22.27
2018-11-05T16:12:56.096Z,24.17
2018-11-05T16:15:25.146Z,23.83
2018-11-05T16:17:54.015Z,22.27
2018-11-05T16:20:23.643Z,25.53
2018-11-05T16:22:53.316Z,22.53
2018-11-05T16:25:22.467Z,27.07
2018-11-05T16:27:51.527Z,27.43
2018-11-05T16:30:21.921Z,24.00
2018-11-05T16:32:52.279Z,24.67
2018-11-05T16:35:22.178Z,23.47
2018-11-05T16:37:52.035Z,28.50
2018-11-05T16:40:21.115Z,29.40
2018-11-05T16:42:51.325Z,36.40
2018-11-05T16:45:20.856Z,31.30
2018-11-05T16:47:51.118Z,30.40
2018-11-05T16:50:22.778Z,33.93
2018-11-05T16:52:51.554Z,46.70
2018-11-05T16:55:20.840Z,39.67
2018-11-05T16:57:50.071Z,35.43
2018-11-05T17:00:19.304Z,27.17
2018-11-05T17:02:49.413Z,23.93
2018-11-05T17:05:18.121Z,24.27
2018-11-05T17:07:47.509Z,26.87
2018-11-05T17:10:16.425Z,26.43
2018-11-05T17:12:45.949Z,30.53
2018-11-05T17:15:16.252Z,28.97
2018-11-05T17:17:45.280Z,26.63
2018-11-05T17:20:16.614Z,25.57
2018-11-05T17:22:46.233Z,32.30
2018-11-05T17:25:15.998Z,38.73
2018-11-05T17:27:46.018Z,32.20
2018-11-05T17:30:18.178Z,35.63
2018-11-05T17:32:48.012Z,50.03
2018-11-05T17:35:17.496Z,40.13
2018-11-05T17:37:47.396Z,30.47
2018-11-05T17:40:17.672Z,27.97
2018-11-05T17:42:46.386Z,27.57
2018-11-05T17:45:16.950Z,30.83
2018-11-05T17:47:46.707Z,34.10
2018-11-05T17:50:16.896Z,30.47
2018-11-05T17:52:46.285Z,42.57
2018-11-05T17:55:15.967Z,41.53
2018-11-05T17:57:45.810Z,38.27
2018-11-05T18:00:18.485Z,33.23
2018-11-05T18:02:48.152Z,30.77
2018-11-05T18:05:17.423Z,34.67
2018-11-05T18:07:47.189Z,29.17
2018-11-05T18:10:16.537Z,35.73
2018-11-05T18:12:45.308Z,33.77
2018-11-05T18:15:14.624Z,33.30
2018-11-05T18:17:45.196Z,32.23
2018-11-05T18:20:14.972Z,31.67
2018-11-05T18:22:44.736Z,36.50
2018-11-05T18:25:17.866Z,33.40
2018-11-05T18:27:46.813Z,33.33
2018-11-05T18:30:16.709Z,31.93
2018-11-05T18:32:46.057Z,30.77
2018-11-05T18:35:15.532Z,35.37
2018-11-05T18:37:45.813Z,29.60
2018-11-05T18:40:15.820Z,32.40
2018-11-05T18:42:45.354Z,36.07
2018-11-05T18:45:14.883Z,33.20
2018-11-05T18:47:44.066Z,30.07
2018-11-05T18:50:14.449Z,32.43
2018-11-05T18:52:43.721Z,32.40
2018-11-05T18:55:14.780Z,31.87
2018-11-05T18:57:43.896Z,31.70
2018-11-05T19:00:20.218Z,36.73
2018-11-05T19:02:50.496Z,35.83
2018-11-05T19:05:19.978Z,35.50
2018-11-05T19:07:49.594Z,35.87
2018-11-05T19:10:18.660Z,35.00
2018-11-05T19:12:48.380Z,34.93
2018-11-05T19:15:17.332Z,33.17
2018-11-05T19:17:47.473Z,38.80
2018-11-05T19:20:16.184Z,38.20
2018-11-05T19:22:45.671Z,34.43
2018-11-05T19:25:15.681Z,31.60
2018-11-05T19:27:45.264Z,33.10
2018-11-05T19:30:16.658Z,34.60
2018-11-05T19:32:46.220Z,36.13
2018-11-05T19:35:15.973Z,35.87
2018-11-05T19:37:45.449Z,36.37
2018-11-05T19:40:15.332Z,39.53
2018-11-05T19:42:45.305Z,35.97
2018-11-05T19:45:15.981Z,39.77
2018-11-05T19:47:45.975Z,34.50
2018-11-05T19:50:16.558Z,37.07
2018-11-05T19:52:45.941Z,34.67
2018-11-05T19:55:16.264Z,36.13
2018-11-05T19:57:46.458Z,31.53
2018-11-05T20:00:15.948Z,35.90
2018-11-05T20:02:45.108Z,35.97
2018-11-05T20:05:15.025Z,32.43
2018-11-05T20:07:44.688Z,35.33
2018-11-05T20:10:14.536Z,35.37
2018-11-05T20:12:44.119Z,35.13
2018-11-05T20:15:13.337Z,34.03
2018-11-05T20:17:43.457Z,36.60
2018-11-05T20:20:13.890Z,33.20
2018-11-05T20:22:45.670Z,33.30
2018-11-05T20:25:14.853Z,38.83
2018-11-05T20:27:44.695Z,32.97
2018-11-05T20:30:16.817Z,33.30
2018-11-05T20:32:47.010Z,35.37
2018-11-05T20:35:16.272Z,35.80
2018-11-05T20:37:45.090Z,34.53
2018-11-05T20:40:18.142Z,33.87
2018-11-05T20:42:47.990Z,35.67
2018-11-05T20:45:17.742Z,37.27
2018-11-05T20:47:46.936Z,40.23
2018-11-05T20:50:16.839Z,33.63
2018-11-05T20:52:45.693Z,35.77
2018-11-05T20:55:15.395Z,29.37
2018-11-05T20:57:44.188Z,32.90
2018-11-05T21:00:14.597Z,28.70
2018-11-05T21:02:43.768Z,30.10
2018-11-05T21:05:12.925Z,26.00
2018-11-05T21:07:42.938Z,29.90
2018-11-05T21:10:12.600Z,32.43
2018-11-05T21:12:42.042Z,38.90
2018-11-05T21:15:16.244Z,41.33
2018-11-05T21:17:46.220Z,38.67
2018-11-05T21:20:15.294Z,26.83
2018-11-05T21:22:44.671Z,27.30
2018-11-05T21:25:14.102Z,25.20
2018-11-05T21:27:44.030Z,36.30
2018-11-05T21:30:15.519Z,37.50
2018-11-05T21:32:45.365Z,36.37
2018-11-05T21:35:15.552Z,35.97
2018-11-05T21:37:44.951Z,34.17
2018-11-05T21:40:14.916Z,31.03
2018-11-05T21:42:43.800Z,34.17
2018-11-05T21:45:14.059Z,30.93
2018-11-05T21:47:43.355Z,33.83
2018-11-05T21:50:14.946Z,40.63
2018-11-05T21:52:44.722Z,34.27
2018-11-05T21:55:13.981Z,33.27
2018-11-05T21:57:43.730Z,33.40
2018-11-05T22:00:16.774Z,27.97
2018-11-05T22:02:51.241Z,28.03
2018-11-05T22:05:20.249Z,27.10
2018-11-05T22:07:49.779Z,28.40
2018-11-05T22:10:18.858Z,25.03
2018-11-05T22:12:48.307Z,24.37
2018-11-05T22:15:17.500Z,24.97
2018-11-05T22:17:46.595Z,24.40
2018-11-05T22:20:16.076Z,21.80
2018-11-05T22:22:44.768Z,22.57
2018-11-05T22:25:13.961Z,20.73
2018-11-05T22:27:42.909Z,32.23
2018-11-05T22:30:12.230Z,24.57
2018-11-05T22:32:41.303Z,32.67
2018-11-05T22:35:11.181Z,20.83
2018-11-05T22:37:40.191Z,16.40
2018-11-05T22:40:11.348Z,15.93
2018-11-05T22:42:40.433Z,15.03
2018-11-05T22:45:10.037Z,15.27
2018-11-05T22:47:38.599Z,14.83
2018-11-05T22:50:07.980Z,16.67
2018-11-05T22:52:37.330Z,16.03
2018-11-05T22:55:06.639Z,17.90
2018-11-05T22:57:36.414Z,21.93
2018-11-05T23:00:18.250Z,17.37
2018-11-05T23:02:52.709Z,15.83
2018-11-05T23:05:22.465Z,87.13
2018-11-05T23:07:53.491Z,32.00
2018-11-05T23:10:22.556Z,33.23
2018-11-05T23:12:51.716Z,69.90
2018-11-05T23:15:21.328Z,19.10
2018-11-05T23:17:50.441Z,23.07
2018-11-05T23:20:20.104Z,26.70
2018-11-05T23:22:49.024Z,21.03
2018-11-05T23:25:17.652Z,77.37
2018-11-05T23:27:46.269Z,41.33
2018-11-05T23:30:15.309Z,26.53
2018-11-05T23:32:44.807Z,34.47
2018-11-05T23:35:13.840Z,95.10
2018-11-05T23:37:42.996Z,59.03
2018-11-05T23:40:11.984Z,28.03
2018-11-05T23:42:41.171Z,23.03
2018-11-05T23:45:12.412Z,22.83
2018-11-05T23:47:41.412Z,21.17
2018-11-05T23:50:11.166Z,19.87
2018-11-05T23:52:40.548Z,23.60
2018-11-05T23:55:10.316Z,33.70
2018-11-05T23:57:39.262Z,31.70
